createdAt,value
2018-07-14T00:01:44.189Z,77.69
2018-07-14T00:04:12.284Z,77.42
2018-07-14T00:06:40.368Z,77.79
2018-07-14T00:09:08.444Z,78.20
2018-07-14T00:11:36.528Z,77.88
2018-07-14T00:14:04.616Z,78.36
2018-07-14T00:16:32.713Z,78.22
2018-07-14T00:19:00.857Z,78.11
2018-07-14T00:21:29.048Z,78.70
2018-07-14T00:23:57.197Z,78.72
2018-07-14T00:26:25.323Z,78.98
2018-07-14T00:28:53.642Z,79.11
2018-07-14T00:31:21.957Z,79.45
2018-07-14T00:33:50.204Z,79.23
2018-07-14T00:36:18.411Z,79.03
2018-07-14T00:38:46.612Z,79.21
2018-07-14T00:41:14.767Z,79.23
2018-07-14T00:43:42.854Z,79.48
2018-07-14T00:46:11.020Z,79.60
2018-07-14T00:48:39.064Z,79.88
2018-07-14T00:51:07.149Z,79.95
2018-07-14T00:53:35.241Z,79.98
2018-07-14T00:56:03.330Z,79.79
2018-07-14T00:58:31.497Z,79.42
2018-07-14T01:00:59.566Z,79.68
2018-07-14T01:03:27.624Z,79.91
2018-07-14T01:05:55.778Z,79.83
2018-07-14T01:08:23.810Z,79.94
2018-07-14T01:10:51.884Z,80.24
2018-07-14T01:13:19.951Z,80.05
2018-07-14T01:15:48.389Z,80.29
2018-07-14T01:18:16.480Z,80.34
2018-07-14T01:20:44.514Z,80.33
2018-07-14T01:23:12.584Z,80.55
2018-07-14T01:25:40.676Z,80.33
2018-07-14T01:28:08.751Z,80.49
2018-07-14T01:30:36.835Z,80.89
2018-07-14T01:33:04.986Z,81.03
2018-07-14T01:35:33.035Z,81.18
2018-07-14T01:38:01.106Z,81.33
2018-07-14T01:40:29.188Z,81.21
2018-07-14T01:42:57.940Z,81.33
2018-07-14T01:45:26.255Z,81.30
2018-07-14T01:47:54.339Z,81.46
2018-07-14T01:50:22.387Z,81.43
2018-07-14T01:52:50.459Z,81.26
2018-07-14T01:55:18.538Z,81.20
2018-07-14T01:57:46.627Z,81.48
2018-07-14T02:00:14.687Z,81.54
2018-07-14T02:02:42.742Z,81.42
2018-07-14T02:05:10.827Z,81.58
2018-07-14T02:07:38.883Z,81.46
2018-07-14T02:10:07.169Z,81.24
2018-07-14T02:12:35.251Z,81.89
2018-07-14T02:15:03.367Z,81.98
2018-07-14T02:17:31.427Z,81.60
2018-07-14T02:19:59.583Z,81.67
2018-07-14T02:22:27.680Z,82.02
2018-07-14T02:24:55.878Z,81.86
2018-07-14T02:27:24.168Z,81.92
2018-07-14T02:29:52.415Z,82.33
2018-07-14T02:32:20.892Z,82.18
2018-07-14T02:34:49.041Z,81.92
2018-07-14T02:37:17.232Z,81.94
2018-07-14T02:39:45.366Z,81.75
2018-07-14T02:42:13.534Z,82.10
2018-07-14T02:44:41.633Z,82.39
2018-07-14T02:47:09.728Z,82.07
2018-07-14T02:49:37.784Z,82.25
2018-07-14T02:52:06.859Z,82.19
2018-07-14T02:54:34.916Z,82.17
2018-07-14T02:57:03.437Z,81.85
2018-07-14T02:59:31.514Z,82.30
2018-07-14T03:01:59.650Z,82.40
2018-07-14T03:04:27.805Z,82.55
2018-07-14T03:06:56.019Z,82.67
2018-07-14T03:09:24.300Z,82.64
2018-07-14T03:11:52.539Z,82.64
2018-07-14T03:14:21.131Z,82.73
2018-07-14T03:16:49.311Z,82.36
2018-07-14T03:19:17.462Z,82.61
2018-07-14T03:21:45.552Z,82.39
2018-07-14T03:24:13.691Z,82.46
2018-07-14T03:26:41.755Z,82.76
2018-07-14T03:29:09.831Z,82.84
2018-07-14T03:31:37.896Z,82.75
2018-07-14T03:34:06.129Z,82.75
2018-07-14T03:36:34.228Z,82.50
2018-07-14T03:39:02.288Z,82.52
2018-07-14T03:41:30.494Z,82.36
2018-07-14T03:43:58.639Z,82.37
2018-07-14T03:46:26.761Z,82.45
2018-07-14T03:48:54.931Z,82.29
2018-07-14T03:51:22.975Z,82.19
2018-07-14T03:53:51.035Z,82.25
2018-07-14T03:56:19.135Z,81.93
2018-07-14T03:58:47.175Z,81.75
2018-07-14T04:01:15.299Z,81.91
2018-07-14T04:03:43.356Z,81.60
2018-07-14T04:06:11.583Z,81.64
2018-07-14T04:08:39.643Z,81.59
2018-07-14T04:11:07.896Z,81.44
2018-07-14T04:13:36.194Z,81.14
2018-07-14T04:16:04.367Z,80.74
2018-07-14T04:18:32.570Z,80.42
2018-07-14T04:21:00.637Z,80.13
2018-07-14T04:23:28.695Z,79.91
2018-07-14T04:25:56.857Z,79.56
2018-07-14T04:28:25.119Z,79.59
2018-07-14T04:30:53.348Z,79.67
2018-07-14T04:33:21.518Z,79.33
2018-07-14T04:35:49.686Z,79.90
2018-07-14T04:38:17.875Z,79.67
2018-07-14T04:40:45.979Z,78.83
2018-07-14T04:43:14.718Z,77.28
2018-07-14T04:45:42.780Z,76.86
2018-07-14T04:48:11.431Z,76.40
2018-07-14T04:50:39.496Z,75.80
2018-07-14T04:53:07.610Z,75.46
2018-07-14T04:55:35.679Z,75.02
2018-07-14T04:58:03.779Z,73.38
2018-07-14T05:00:31.826Z,71.97
2018-07-14T05:02:59.886Z,72.36
2018-07-14T05:05:27.975Z,70.94
2018-07-14T05:07:56.056Z,68.69
2018-07-14T05:10:24.179Z,66.84
2018-07-14T05:12:52.234Z,64.56
2018-07-14T05:15:20.413Z,63.68
2018-07-14T05:17:48.491Z,62.44
2018-07-14T05:20:16.555Z,60.46
2018-07-14T05:22:44.607Z,58.82
2018-07-14T05:25:12.693Z,57.75
2018-07-14T05:27:40.776Z,54.79
2018-07-14T05:30:08.818Z,55.22
2018-07-14T05:32:36.871Z,56.51
2018-07-14T05:35:05.296Z,56.00
2018-07-14T05:37:33.352Z,58.06
2018-07-14T05:40:01.412Z,59.40
2018-07-14T05:42:29.694Z,55.71
2018-07-14T05:44:57.802Z,55.06
2018-07-14T05:47:25.874Z,53.48
2018-07-14T05:49:53.948Z,52.82
2018-07-14T05:52:22.466Z,51.52
2018-07-14T05:54:50.507Z,51.61
2018-07-14T05:57:18.563Z,48.78
2018-07-14T05:59:46.740Z,49.94
2018-07-14T06:02:14.815Z,49.31
2018-07-14T06:04:42.867Z,50.07
2018-07-14T06:07:10.932Z,49.50
2018-07-14T06:09:39.050Z,47.66
2018-07-14T06:12:07.100Z,47.98
2018-07-14T06:14:35.147Z,47.26
2018-07-14T06:17:03.197Z,47.46
2018-07-14T06:19:31.266Z,46.76
2018-07-14T06:21:59.303Z,45.64
2018-07-14T06:24:27.491Z,44.75
2018-07-14T06:26:55.539Z,45.80
2018-07-14T06:29:24.380Z,44.52
2018-07-14T06:31:52.514Z,44.47
2018-07-14T06:34:20.550Z,44.93
2018-07-14T06:36:48.643Z,45.06
2018-07-14T06:39:16.765Z,44.00
2018-07-14T06:41:44.832Z,44.91
2018-07-14T06:44:12.935Z,43.39
2018-07-14T06:46:40.974Z,42.56
2018-07-14T06:49:09.116Z,41.34
2018-07-14T06:51:37.216Z,41.11
2018-07-14T06:54:05.263Z,40.48
2018-07-14T06:56:33.375Z,39.57
2018-07-14T06:59:01.452Z,38.70
2018-07-14T07:01:29.760Z,40.13
2018-07-14T07:03:57.991Z,39.21
2018-07-14T07:06:26.139Z,38.92
2018-07-14T07:08:54.203Z,40.29
2018-07-14T07:11:22.247Z,39.68
2018-07-14T07:13:50.756Z,39.90
2018-07-14T07:16:18.743Z,39.64
2018-07-14T07:18:46.782Z,39.12
2018-07-14T07:21:15.006Z,40.27
2018-07-14T07:23:43.303Z,40.65
2018-07-14T07:26:11.350Z,38.93
2018-07-14T07:28:39.453Z,38.15
2018-07-14T07:31:07.520Z,40.04
2018-07-14T07:33:35.624Z,39.02
2018-07-14T07:36:03.676Z,40.05
2018-07-14T07:38:31.760Z,38.38
2018-07-14T07:40:59.824Z,38.56
2018-07-14T07:43:27.863Z,39.39
2018-07-14T07:45:55.945Z,39.36
2018-07-14T07:48:24.125Z,39.38
2018-07-14T07:50:52.173Z,38.42
2018-07-14T07:53:20.236Z,37.25
2018-07-14T07:55:48.357Z,38.72
2018-07-14T07:58:16.529Z,39.01
2018-07-14T08:00:44.605Z,38.77
2018-07-14T08:03:12.656Z,39.06
2018-07-14T08:05:40.763Z,39.77
2018-07-14T08:08:08.856Z,38.68
2018-07-14T08:10:36.936Z,38.71
2018-07-14T08:13:05.072Z,38.53
2018-07-14T08:15:33.159Z,40.05
2018-07-14T08:18:01.583Z,39.22
2018-07-14T08:20:29.653Z,39.35
2018-07-14T08:22:57.902Z,40.02
2018-07-14T08:25:25.819Z,40.71
2018-07-14T08:27:53.892Z,41.21
2018-07-14T08:30:21.947Z,44.17
2018-07-14T08:32:50.028Z,42.55
2018-07-14T08:35:18.088Z,42.21
2018-07-14T08:37:46.144Z,42.02
2018-07-14T08:40:14.203Z,40.83
2018-07-14T08:42:42.261Z,40.15
2018-07-14T08:45:10.368Z,40.24
2018-07-14T08:47:38.407Z,40.71
2018-07-14T08:50:06.599Z,41.40
2018-07-14T08:52:34.644Z,41.32
2018-07-14T08:55:02.936Z,41.17
2018-07-14T08:57:31.012Z,41.86
2018-07-14T08:59:59.062Z,42.03
2018-07-14T09:02:27.116Z,41.70
2018-07-14T09:04:55.170Z,41.97
2018-07-14T09:07:23.263Z,43.45
2018-07-14T09:09:51.291Z,43.24
2018-07-14T09:12:19.385Z,43.95
2018-07-14T09:14:47.449Z,43.62
2018-07-14T09:17:15.480Z,42.70
2018-07-14T09:19:43.763Z,42.76
2018-07-14T09:22:11.828Z,42.37
2018-07-14T09:24:39.904Z,42.87
2018-07-14T09:27:07.979Z,42.09
2018-07-14T09:29:36.387Z,42.22
2018-07-14T09:32:04.427Z,43.30
2018-07-14T09:34:32.609Z,41.48
2018-07-14T09:37:01.111Z,42.25
2018-07-14T09:39:29.171Z,41.41
2018-07-14T09:41:57.264Z,42.26
2018-07-14T09:44:25.500Z,41.33
2018-07-14T09:46:53.540Z,41.24
2018-07-14T09:49:21.844Z,40.04
2018-07-14T09:51:49.915Z,40.51
2018-07-14T09:54:18.032Z,40.00
2018-07-14T09:56:46.051Z,39.49
2018-07-14T09:59:14.295Z,39.65
2018-07-14T10:01:42.351Z,39.75
2018-07-14T10:04:10.420Z,39.82
2018-07-14T10:06:38.488Z,39.17
2018-07-14T10:09:06.966Z,39.63
2018-07-14T10:11:35.255Z,38.62
2018-07-14T10:14:03.410Z,40.10
2018-07-14T10:16:31.640Z,41.53
2018-07-14T10:18:59.821Z,43.42
2018-07-14T10:21:27.964Z,44.49
2018-07-14T10:23:56.141Z,45.14
2018-07-14T10:26:24.420Z,44.49
2018-07-14T10:28:52.979Z,46.35
2018-07-14T10:31:21.127Z,48.23
2018-07-14T10:33:49.648Z,48.32
2018-07-14T10:36:18.139Z,48.07
2018-07-14T10:38:46.288Z,47.43
2018-07-14T10:41:14.295Z,47.83
2018-07-14T10:43:42.412Z,48.68
2018-07-14T10:46:10.504Z,49.88
2018-07-14T10:48:38.684Z,49.65
2018-07-14T10:51:06.748Z,51.27
2018-07-14T10:53:34.956Z,50.12
2018-07-14T10:56:03.039Z,50.24
2018-07-14T10:58:31.136Z,50.53
2018-07-14T11:00:59.296Z,49.84
2018-07-14T11:03:27.432Z,49.48
2018-07-14T11:05:55.739Z,49.26
2018-07-14T11:08:24.481Z,48.76
2018-07-14T11:10:53.116Z,49.24
2018-07-14T11:13:21.342Z,50.05
2018-07-14T11:15:49.647Z,48.92
2018-07-14T11:18:19.274Z,48.37
2018-07-14T11:20:47.542Z,49.26
2018-07-14T11:23:15.880Z,48.58
2018-07-14T11:25:44.014Z,48.69
2018-07-14T11:28:12.273Z,48.62
2018-07-14T11:30:40.467Z,49.97
2018-07-14T11:33:08.644Z,51.29
2018-07-14T11:35:36.895Z,51.12
2018-07-14T11:38:05.002Z,50.73
2018-07-14T11:40:33.212Z,50.64
2018-07-14T11:43:01.815Z,49.77
2018-07-14T11:45:30.125Z,49.72
2018-07-14T11:47:59.405Z,49.34
2018-07-14T11:50:27.859Z,49.52
2018-07-14T11:52:56.111Z,50.31
2018-07-14T11:55:24.577Z,49.64
2018-07-14T11:57:53.651Z,49.58
2018-07-14T12:00:22.298Z,49.35
2018-07-14T12:02:50.611Z,49.02
2018-07-14T12:05:19.365Z,49.14
2018-07-14T12:07:48.159Z,47.18
2018-07-14T12:10:16.279Z,48.07
2018-07-14T12:12:44.373Z,47.51
2018-07-14T12:15:12.436Z,47.78
2018-07-14T12:17:40.507Z,47.10
2018-07-14T12:20:16.741Z,47.80
2018-07-14T12:22:44.973Z,47.92
2018-07-14T12:25:13.068Z,47.43
2018-07-14T12:27:42.139Z,47.90
2018-07-14T12:30:10.299Z,48.33
2018-07-14T12:32:39.095Z,49.03
2018-07-14T12:35:07.562Z,48.62
2018-07-14T12:37:35.879Z,49.06
2018-07-14T12:40:04.131Z,48.32
2018-07-14T12:42:32.337Z,48.67
2018-07-14T12:45:00.766Z,48.90
2018-07-14T12:47:29.343Z,49.21
2018-07-14T12:49:57.996Z,47.96
2018-07-14T12:52:26.592Z,47.99
2018-07-14T12:54:55.184Z,47.70
2018-07-14T12:57:23.802Z,47.63
2018-07-14T12:59:53.348Z,46.48
2018-07-14T13:02:22.275Z,47.04
2018-07-14T13:04:50.491Z,47.14
2018-07-14T13:07:18.740Z,46.87
2018-07-14T13:09:46.808Z,46.42
2018-07-14T13:12:14.859Z,47.15
2018-07-14T13:14:42.973Z,47.46
2018-07-14T13:17:11.071Z,46.99
2018-07-14T13:19:39.172Z,47.21
2018-07-14T13:22:07.260Z,47.88
2018-07-14T13:24:35.321Z,46.90
2018-07-14T13:27:03.781Z,47.13
2018-07-14T13:29:32.089Z,47.42
2018-07-14T13:32:00.472Z,46.20
2018-07-14T13:34:28.966Z,46.61
2018-07-14T13:36:57.487Z,46.36
2018-07-14T13:39:26.215Z,46.79
2018-07-14T13:41:54.957Z,45.93
2018-07-14T13:44:23.667Z,46.94
2018-07-14T13:46:53.113Z,47.85
2018-07-14T13:49:22.091Z,47.12
2018-07-14T13:51:50.360Z,46.38
2018-07-14T13:54:18.560Z,45.93
2018-07-14T13:56:47.759Z,47.55
2018-07-14T13:59:16.142Z,46.77
2018-07-14T14:01:44.206Z,46.80
2018-07-14T14:04:12.270Z,47.87
2018-07-14T14:06:40.355Z,47.01
2018-07-14T14:09:08.776Z,46.52
2018-07-14T14:11:37.063Z,47.22
2018-07-14T14:14:05.332Z,46.76
2018-07-14T14:16:33.509Z,46.49
2018-07-14T14:19:01.725Z,46.26
2018-07-14T14:21:29.791Z,46.36
2018-07-14T14:24:01.393Z,46.59
2018-07-14T14:26:29.769Z,46.69
2018-07-14T14:28:59.943Z,45.51
2018-07-14T14:31:28.271Z,45.47
2018-07-14T14:33:56.337Z,45.51
2018-07-14T14:36:24.368Z,45.05
2018-07-14T14:38:52.421Z,44.55
2018-07-14T14:41:20.692Z,45.09
2018-07-14T14:43:48.929Z,44.66
2018-07-14T14:46:17.051Z,44.85
2018-07-14T14:48:45.089Z,44.37
2018-07-14T14:51:13.494Z,45.00
2018-07-14T14:53:41.588Z,44.38
2018-07-14T14:56:09.823Z,45.21
2018-07-14T14:58:37.846Z,44.64
2018-07-14T15:01:05.971Z,44.88
2018-07-14T15:03:34.164Z,44.58
2018-07-14T15:06:03.113Z,45.22
2018-07-14T15:08:31.370Z,44.83
2018-07-14T15:10:59.565Z,44.35
2018-07-14T15:13:27.959Z,45.25
2018-07-14T15:15:56.409Z,43.49
2018-07-14T15:18:24.903Z,43.80
2018-07-14T15:20:53.817Z,44.68
2018-07-14T15:23:23.620Z,43.66
2018-07-14T15:25:52.005Z,44.47
2018-07-14T15:28:20.188Z,45.39
2018-07-14T15:30:48.274Z,45.44
2018-07-14T15:33:16.521Z,44.25
2018-07-14T15:35:44.396Z,43.88
2018-07-14T15:38:13.079Z,43.69
2018-07-14T15:40:41.524Z,43.42
2018-07-14T15:43:09.580Z,43.05
2018-07-14T15:45:37.626Z,42.78
2018-07-14T15:48:06.241Z,43.20
2018-07-14T15:50:35.178Z,43.65
2018-07-14T15:53:03.523Z,44.09
2018-07-14T15:55:32.196Z,43.06
2018-07-14T15:58:00.487Z,44.24
2018-07-14T16:00:28.654Z,44.13
2018-07-14T16:02:56.840Z,42.35
2018-07-14T16:05:24.957Z,42.51
2018-07-14T16:07:53.385Z,43.38
2018-07-14T16:10:21.688Z,42.89
2018-07-14T16:12:49.874Z,43.35
2018-07-14T16:15:17.925Z,43.31
2018-07-14T16:17:46.013Z,42.53
2018-07-14T16:20:14.059Z,43.15
2018-07-14T16:22:42.108Z,43.20
2018-07-14T16:25:10.185Z,42.97
2018-07-14T16:27:38.255Z,43.50
2018-07-14T16:30:07.152Z,42.54
2018-07-14T16:32:35.268Z,42.66
2018-07-14T16:35:03.307Z,43.24
2018-07-14T16:37:31.460Z,42.85
2018-07-14T16:39:59.786Z,43.31
2018-07-14T16:42:28.026Z,42.93
2018-07-14T16:44:56.445Z,42.32
2018-07-14T16:47:24.856Z,42.55
2018-07-14T16:49:53.931Z,42.71
2018-07-14T16:52:23.158Z,42.87
2018-07-14T16:54:51.480Z,42.35
2018-07-14T16:57:19.575Z,41.18
2018-07-14T16:59:47.647Z,42.43
2018-07-14T17:02:15.707Z,42.27
2018-07-14T17:04:43.781Z,41.84
2018-07-14T17:07:12.450Z,41.11
2018-07-14T17:09:40.524Z,41.90
2018-07-14T17:12:08.834Z,42.43
2018-07-14T17:14:36.963Z,42.37
2018-07-14T17:17:05.125Z,43.16
2018-07-14T17:19:33.543Z,42.82
2018-07-14T17:22:01.916Z,41.71
2018-07-14T17:24:30.193Z,41.41
2018-07-14T17:26:58.815Z,42.29
2018-07-14T17:29:27.495Z,42.61
2018-07-14T17:31:56.424Z,42.11
2018-07-14T17:34:25.414Z,42.09
2018-07-14T17:36:53.964Z,43.49
2018-07-14T17:39:22.831Z,43.67
2018-07-14T17:41:51.119Z,42.78
2018-07-14T17:44:19.448Z,42.35
2018-07-14T17:46:47.826Z,42.59
2018-07-14T17:49:16.145Z,42.95
2018-07-14T17:51:44.258Z,43.71
2018-07-14T17:54:12.821Z,43.17
2018-07-14T17:56:40.924Z,43.13
2018-07-14T17:59:09.073Z,43.14
2018-07-14T18:01:37.120Z,43.52
2018-07-14T18:04:05.291Z,43.72
2018-07-14T18:06:33.364Z,44.44
2018-07-14T18:09:01.418Z,44.87
2018-07-14T18:11:29.512Z,44.10
2018-07-14T18:13:57.588Z,44.47
2018-07-14T18:16:25.756Z,44.75
2018-07-14T18:18:53.827Z,45.20
2018-07-14T18:21:21.959Z,45.40
2018-07-14T18:23:50.008Z,45.42
2018-07-14T18:26:18.845Z,45.55
2018-07-14T18:28:47.216Z,44.64
2018-07-14T18:31:15.279Z,45.56
2018-07-14T18:33:43.443Z,45.92
2018-07-14T18:36:12.003Z,45.72
2018-07-14T18:38:40.006Z,45.82
2018-07-14T18:41:08.062Z,46.22
2018-07-14T18:43:36.283Z,47.10
2018-07-14T18:46:04.521Z,46.57
2018-07-14T18:48:32.739Z,47.41
2018-07-14T18:51:01.280Z,46.96
2018-07-14T18:53:29.424Z,47.25
2018-07-14T18:55:57.564Z,48.16
2018-07-14T18:58:25.736Z,48.01
2018-07-14T19:00:54.075Z,47.69
2018-07-14T19:03:22.774Z,48.33
2018-07-14T19:05:51.087Z,48.44
2018-07-14T19:08:19.195Z,49.09
2018-07-14T19:10:47.305Z,48.96
2018-07-14T19:13:15.456Z,49.03
2018-07-14T19:15:43.591Z,49.41
2018-07-14T19:18:11.660Z,49.74
2018-07-14T19:20:39.709Z,50.09
2018-07-14T19:23:07.788Z,49.91
2018-07-14T19:25:35.913Z,50.84
2018-07-14T19:28:04.097Z,51.33
2018-07-14T19:30:32.572Z,51.52
2018-07-14T19:33:00.794Z,51.49
2018-07-14T19:35:28.959Z,52.09
2018-07-14T19:37:57.226Z,51.92
2018-07-14T19:40:25.894Z,51.70
2018-07-14T19:42:54.002Z,53.01
2018-07-14T19:45:22.166Z,52.76
2018-07-14T19:47:50.319Z,52.84
2018-07-14T19:50:18.584Z,52.94
2018-07-14T19:52:46.863Z,53.81
2018-07-14T19:55:15.147Z,53.55
2018-07-14T19:57:43.207Z,53.88
2018-07-14T20:00:11.563Z,54.62
2018-07-14T20:02:39.906Z,54.84
2018-07-14T20:05:08.034Z,54.70
2018-07-14T20:07:36.276Z,55.06
2018-07-14T20:10:04.488Z,55.47
2018-07-14T20:12:32.842Z,55.57
2018-07-14T20:15:01.080Z,55.52
2018-07-14T20:17:29.173Z,56.44
2018-07-14T20:19:57.328Z,56.19
2018-07-14T20:22:25.928Z,56.44
2018-07-14T20:24:54.540Z,56.85
2018-07-14T20:27:22.906Z,57.38
2018-07-14T20:29:51.647Z,57.09
2018-07-14T20:32:19.912Z,57.54
2018-07-14T20:34:48.062Z,57.62
2018-07-14T20:37:16.422Z,57.28
2018-07-14T20:39:44.753Z,57.44
2018-07-14T20:42:12.811Z,57.49
2018-07-14T20:44:40.948Z,58.04
2018-07-14T20:47:09.024Z,57.93
2018-07-14T20:49:37.187Z,58.77
2018-07-14T20:52:05.411Z,58.60
2018-07-14T20:54:33.514Z,58.78
2018-07-14T20:57:01.644Z,58.89
2018-07-14T20:59:30.636Z,57.95
2018-07-14T21:01:58.663Z,58.76
2018-07-14T21:04:26.843Z,58.40
2018-07-14T21:06:55.147Z,57.77
2018-07-14T21:09:23.199Z,58.27
2018-07-14T21:11:51.256Z,58.44
2018-07-14T21:14:19.455Z,59.69
2018-07-14T21:16:47.501Z,59.43
2018-07-14T21:19:15.572Z,59.47
2018-07-14T21:21:43.739Z,59.80
2018-07-14T21:24:11.788Z,59.74
2018-07-14T21:26:39.835Z,59.76
2018-07-14T21:29:07.896Z,60.46
2018-07-14T21:31:35.939Z,59.82
2018-07-14T21:34:04.263Z,60.53
2018-07-14T21:36:32.496Z,60.23
2018-07-14T21:39:00.760Z,60.38
2018-07-14T21:41:28.931Z,60.12
2018-07-14T21:43:57.097Z,60.85
2018-07-14T21:46:25.283Z,60.40
2018-07-14T21:48:53.589Z,60.80
2018-07-14T21:51:21.663Z,60.67
2018-07-14T21:53:49.723Z,60.62
2018-07-14T21:56:17.908Z,62.00
2018-07-14T21:58:46.077Z,62.52
2018-07-14T22:01:19.563Z,61.95
2018-07-14T22:03:47.620Z,61.93
2018-07-14T22:06:15.670Z,62.04
2018-07-14T22:08:43.835Z,61.95
2018-07-14T22:11:11.967Z,61.79
2018-07-14T22:13:41.088Z,62.26
2018-07-14T22:16:13.574Z,62.56
2018-07-14T22:18:41.636Z,62.48
2018-07-14T22:21:09.708Z,62.76
2018-07-14T22:23:41.121Z,62.75
2018-07-14T22:26:09.208Z,63.88
2018-07-14T22:28:37.651Z,63.64
2018-07-14T22:31:05.864Z,62.97
2018-07-14T22:33:34.844Z,63.40
2018-07-14T22:36:03.246Z,63.33
2018-07-14T22:38:31.300Z,64.60
2018-07-14T22:40:59.357Z,64.45
2018-07-14T22:43:27.440Z,65.08
2018-07-14T22:45:55.513Z,65.04
2018-07-14T22:48:23.616Z,64.51
2018-07-14T22:50:51.852Z,63.85
2018-07-14T22:53:19.911Z,64.41
2018-07-14T22:55:51.788Z,64.24
2018-07-14T22:58:19.875Z,64.55
2018-07-14T23:00:47.959Z,64.74
2018-07-14T23:03:15.988Z,64.53
2018-07-14T23:05:44.069Z,64.74
2018-07-14T23:08:12.176Z,64.98
2018-07-14T23:10:40.286Z,65.74
2018-07-14T23:13:08.332Z,65.62
2018-07-14T23:15:36.865Z,65.69
2018-07-14T23:18:05.071Z,65.95
2018-07-14T23:20:33.139Z,66.22
2018-07-14T23:23:01.211Z,66.82
2018-07-14T23:25:29.285Z,66.45
2018-07-14T23:27:57.376Z,66.83
2018-07-14T23:30:25.491Z,66.55
2018-07-14T23:32:53.576Z,66.65
2018-07-14T23:35:21.675Z,67.48
2018-07-14T23:37:49.736Z,67.29
2018-07-14T23:40:17.819Z,67.71
2018-07-14T23:42:48.424Z,67.59
2018-07-14T23:45:16.496Z,67.37
2018-07-14T23:47:44.564Z,69.02
2018-07-14T23:50:12.738Z,69.77
2018-07-14T23:52:40.828Z,69.55
2018-07-14T23:55:08.899Z,69.71
2018-07-14T23:57:36.955Z,69.26
